createdAt,value
2018-03-02T00:00:56.862Z,989.70
2018-03-02T00:01:57.455Z,989.78
2018-03-02T00:02:58.050Z,989.77
2018-03-02T00:03:58.649Z,989.78
2018-03-02T00:04:59.233Z,989.69
2018-03-02T00:05:59.875Z,989.66
2018-03-02T00:07:00.468Z,989.66
2018-03-02T00:08:01.055Z,989.71
2018-03-02T00:09:01.652Z,989.68
2018-03-02T00:10:02.258Z,989.68
2018-03-02T00:11:02.865Z,989.65
2018-03-02T00:12:03.433Z,989.59
2018-03-02T00:13:04.017Z,989.62
2018-03-02T00:14:04.609Z,989.69
2018-03-02T00:15:05.197Z,989.69
2018-03-02T00:16:05.794Z,989.71
2018-03-02T00:17:06.383Z,989.77
2018-03-02T00:18:06.983Z,989.62
2018-03-02T00:19:07.582Z,989.60
2018-03-02T00:20:08.170Z,989.63
2018-03-02T00:21:08.763Z,989.70
2018-03-02T00:22:09.356Z,989.61
2018-03-02T00:23:09.955Z,989.60
2018-03-02T00:24:10.553Z,989.38
2018-03-02T00:25:11.139Z,989.60
2018-03-02T00:26:11.739Z,989.62
2018-03-02T00:27:12.332Z,989.55
2018-03-02T00:28:12.933Z,989.54
2018-03-02T00:29:13.515Z,989.52
2018-03-02T00:30:14.102Z,989.58
2018-03-02T00:31:14.706Z,989.60
2018-03-02T00:32:15.304Z,989.56
2018-03-02T00:33:15.898Z,989.54
2018-03-02T00:34:16.503Z,989.55
2018-03-02T00:35:17.101Z,989.50
2018-03-02T00:36:17.688Z,989.48
2018-03-02T00:37:18.292Z,989.53
2018-03-02T00:38:18.876Z,989.50
2018-03-02T00:39:19.469Z,989.51
2018-03-02T00:40:20.065Z,989.47
2018-03-02T00:41:20.647Z,989.41
2018-03-02T00:42:21.232Z,989.48
2018-03-02T00:43:21.834Z,989.32
2018-03-02T00:44:22.418Z,989.41
2018-03-02T00:45:23.015Z,989.32
2018-03-02T00:46:23.603Z,989.31
2018-03-02T00:47:24.196Z,989.29
2018-03-02T00:48:24.789Z,989.22
2018-03-02T00:49:25.379Z,989.25
2018-03-02T00:50:25.966Z,989.28
2018-03-02T00:51:26.548Z,989.31
2018-03-02T00:52:27.149Z,989.26
2018-03-02T00:53:27.741Z,989.28
2018-03-02T00:54:28.340Z,989.24
2018-03-02T00:55:28.927Z,989.15
2018-03-02T00:56:29.517Z,989.13
2018-03-02T00:57:30.112Z,989.15
2018-03-02T00:58:30.710Z,989.04
2018-03-02T00:59:31.294Z,989.06
2018-03-02T01:00:31.896Z,988.92
2018-03-02T01:01:32.516Z,989.15
2018-03-02T01:02:33.097Z,989.09
2018-03-02T01:03:33.692Z,989.11
2018-03-02T01:04:34.277Z,989.06
2018-03-02T01:05:34.864Z,989.02
2018-03-02T01:06:35.452Z,989.11
2018-03-02T01:07:36.033Z,988.99
2018-03-02T01:08:36.616Z,989.02
2018-03-02T01:09:37.216Z,989.15
2018-03-02T01:10:37.822Z,989.04
2018-03-02T01:11:38.470Z,989.03
2018-03-02T01:12:39.006Z,988.99
2018-03-02T01:13:39.601Z,989.03
2018-03-02T01:14:40.190Z,988.99
2018-03-02T01:15:40.780Z,988.95
2018-03-02T01:16:41.380Z,989.07
2018-03-02T01:17:41.966Z,988.99
2018-03-02T01:18:42.555Z,989.00
2018-03-02T01:19:43.148Z,988.99
2018-03-02T01:20:43.734Z,988.87
2018-03-02T01:21:44.326Z,988.94
2018-03-02T01:22:44.920Z,988.85
2018-03-02T01:23:45.522Z,988.81
2018-03-02T01:24:46.104Z,988.84
2018-03-02T01:25:46.689Z,988.85
2018-03-02T01:26:47.289Z,988.71
2018-03-02T01:27:47.877Z,988.84
2018-03-02T01:28:48.469Z,988.74
2018-03-02T01:29:49.068Z,988.74
2018-03-02T01:30:49.662Z,988.68
2018-03-02T01:31:50.255Z,988.68
2018-03-02T01:32:50.849Z,988.63
2018-03-02T01:33:51.441Z,988.73
2018-03-02T01:34:52.030Z,988.66
2018-03-02T01:35:52.618Z,988.28
2018-03-02T01:36:53.222Z,988.69
2018-03-02T01:37:53.816Z,988.61
2018-03-02T01:38:54.405Z,988.63
2018-03-02T01:39:55.006Z,988.70
2018-03-02T01:40:55.594Z,988.63
2018-03-02T01:41:56.191Z,988.65
2018-03-02T01:42:56.784Z,988.55
2018-03-02T01:43:57.373Z,988.57
2018-03-02T01:44:57.960Z,988.53
2018-03-02T01:45:58.556Z,988.63
2018-03-02T01:46:59.149Z,988.58
2018-03-02T01:47:59.740Z,988.52
2018-03-02T01:49:00.328Z,988.62
2018-03-02T01:50:00.922Z,988.54
2018-03-02T01:51:01.515Z,988.56
2018-03-02T01:52:02.102Z,988.51
2018-03-02T01:53:02.687Z,988.47
2018-03-02T01:54:03.282Z,988.54
2018-03-02T01:55:03.875Z,988.61
2018-03-02T01:56:04.471Z,988.53
2018-03-02T01:57:05.056Z,988.49
2018-03-02T01:58:05.639Z,988.47
2018-03-02T01:59:06.239Z,988.43
2018-03-02T02:00:06.833Z,988.44
2018-03-02T02:01:07.423Z,988.38
2018-03-02T02:02:08.012Z,988.43
2018-03-02T02:03:08.599Z,988.40
2018-03-02T02:04:09.182Z,988.41
2018-03-02T02:05:09.771Z,988.27
2018-03-02T02:06:10.361Z,988.38
2018-03-02T02:07:10.973Z,988.39
2018-03-02T02:08:11.544Z,988.44
2018-03-02T02:09:12.125Z,988.40
2018-03-02T02:10:12.715Z,988.35
2018-03-02T02:11:13.310Z,988.52
2018-03-02T02:12:13.894Z,988.31
2018-03-02T02:13:14.478Z,988.35
2018-03-02T02:14:15.065Z,988.32
2018-03-02T02:15:15.646Z,988.34
2018-03-02T02:16:16.233Z,988.37
2018-03-02T02:17:16.815Z,988.30
2018-03-02T02:18:17.400Z,988.37
2018-03-02T02:19:17.993Z,988.32
2018-03-02T02:20:18.574Z,988.35
2018-03-02T02:21:19.181Z,988.23
2018-03-02T02:22:19.769Z,988.06
2018-03-02T02:23:20.352Z,988.21
2018-03-02T02:24:20.938Z,988.21
2018-03-02T02:25:21.546Z,988.24
2018-03-02T02:26:22.126Z,988.28
2018-03-02T02:27:22.705Z,988.20
2018-03-02T02:28:23.289Z,988.17
2018-03-02T02:29:23.876Z,988.23
2018-03-02T02:30:24.467Z,988.23
2018-03-02T02:31:25.056Z,988.28
2018-03-02T02:32:25.642Z,988.16
2018-03-02T02:33:26.267Z,988.24
2018-03-02T02:34:26.817Z,988.19
2018-03-02T02:35:27.399Z,988.08
2018-03-02T02:36:27.985Z,988.13
2018-03-02T02:37:28.567Z,988.13
2018-03-02T02:38:29.151Z,988.07
2018-03-02T02:39:29.737Z,988.13
2018-03-02T02:40:30.326Z,988.05
2018-03-02T02:41:30.914Z,988.05
2018-03-02T02:42:31.506Z,988.16
2018-03-02T02:43:32.100Z,988.18
2018-03-02T02:44:32.683Z,988.13
2018-03-02T02:45:33.275Z,988.17
2018-03-02T02:46:33.854Z,988.05
2018-03-02T02:47:34.442Z,988.13
2018-03-02T02:48:35.030Z,988.08
2018-03-02T02:49:35.613Z,988.05
2018-03-02T02:50:36.200Z,987.81
2018-03-02T02:51:36.783Z,988.05
2018-03-02T02:52:37.374Z,987.87
2018-03-02T02:53:37.972Z,988.05
2018-03-02T02:54:38.560Z,988.08
2018-03-02T02:55:39.151Z,988.02
2018-03-02T02:56:39.736Z,988.16
2018-03-02T02:57:40.330Z,987.99
2018-03-02T02:58:40.919Z,988.07
2018-03-02T02:59:41.508Z,988.16
2018-03-02T03:00:42.089Z,988.02
2018-03-02T03:01:42.679Z,988.09
2018-03-02T03:02:43.260Z,988.09
2018-03-02T03:03:43.848Z,988.00
2018-03-02T03:04:44.442Z,988.01
2018-03-02T03:05:45.024Z,987.99
2018-03-02T03:06:45.621Z,987.96
2018-03-02T03:07:46.204Z,988.16
2018-03-02T03:08:46.799Z,987.97
2018-03-02T03:09:47.393Z,987.95
2018-03-02T03:10:47.975Z,988.10
2018-03-02T03:11:48.572Z,988.00
2018-03-02T03:12:49.165Z,987.87
2018-03-02T03:13:49.756Z,987.93
2018-03-02T03:14:50.348Z,987.93
2018-03-02T03:15:50.945Z,988.01
2018-03-02T03:16:51.543Z,987.96
2018-03-02T03:17:52.135Z,987.96
2018-03-02T03:18:52.724Z,988.05
2018-03-02T03:19:53.315Z,987.86
2018-03-02T03:20:53.908Z,987.92
2018-03-02T03:21:54.499Z,987.90
2018-03-02T03:22:55.094Z,987.89
2018-03-02T03:23:55.692Z,987.99
2018-03-02T03:24:56.275Z,987.93
2018-03-02T03:25:56.914Z,987.93
2018-03-02T03:26:57.457Z,987.91
2018-03-02T03:27:58.048Z,987.91
2018-03-02T03:28:58.636Z,987.85
2018-03-02T03:29:59.221Z,987.86
2018-03-02T03:30:59.813Z,987.85
2018-03-02T03:32:00.406Z,987.86
2018-03-02T03:33:00.997Z,987.96
2018-03-02T03:34:01.595Z,987.96
2018-03-02T03:35:02.181Z,987.87
2018-03-02T03:36:02.766Z,987.84
2018-03-02T03:37:03.358Z,987.75
2018-03-02T03:38:03.937Z,987.63
2018-03-02T03:39:04.530Z,987.87
2018-03-02T03:40:05.120Z,987.88
2018-03-02T03:41:05.708Z,987.84
2018-03-02T03:42:06.292Z,987.89
2018-03-02T03:43:06.881Z,987.77
2018-03-02T03:44:07.463Z,987.78
2018-03-02T03:45:08.048Z,987.79
2018-03-02T03:46:08.639Z,987.80
2018-03-02T03:47:09.219Z,987.76
2018-03-02T03:48:09.803Z,987.76
2018-03-02T03:49:10.386Z,987.77
2018-03-02T03:50:10.978Z,987.75
2018-03-02T03:51:11.579Z,987.90
2018-03-02T03:52:12.169Z,987.80
2018-03-02T03:53:12.764Z,987.81
2018-03-02T03:54:13.353Z,987.80
2018-03-02T03:55:13.944Z,987.81
2018-03-02T03:56:14.624Z,987.83
2018-03-02T03:57:15.122Z,987.78
2018-03-02T03:58:15.723Z,987.80
2018-03-02T03:59:16.302Z,987.78
2018-03-02T04:00:16.884Z,987.72
2018-03-02T04:01:17.476Z,987.72
2018-03-02T04:02:18.065Z,987.70
2018-03-02T04:03:18.648Z,987.68
2018-03-02T04:04:19.228Z,987.74
2018-03-02T04:05:19.812Z,987.76
2018-03-02T04:06:20.397Z,987.69
2018-03-02T04:07:20.990Z,987.63
2018-03-02T04:08:21.576Z,987.79
2018-03-02T04:09:22.169Z,987.64
2018-03-02T04:10:22.753Z,987.51
2018-03-02T04:11:23.343Z,987.65
2018-03-02T04:12:23.934Z,987.50
2018-03-02T04:13:24.528Z,987.45
2018-03-02T04:14:25.127Z,987.50
2018-03-02T04:15:25.738Z,987.48
2018-03-02T04:16:26.306Z,987.38
2018-03-02T04:17:26.899Z,987.38
2018-03-02T04:18:27.491Z,987.42
2018-03-02T04:19:28.072Z,987.34
2018-03-02T04:20:28.655Z,987.39
2018-03-02T04:21:29.247Z,987.34
2018-03-02T04:22:29.837Z,987.35
2018-03-02T04:23:30.422Z,987.36
2018-03-02T04:24:31.052Z,987.34
2018-03-02T04:25:31.609Z,987.36
2018-03-02T04:26:32.187Z,987.41
2018-03-02T04:27:32.775Z,987.37
2018-03-02T04:28:33.371Z,987.37
2018-03-02T04:29:33.988Z,987.30
2018-03-02T04:30:34.549Z,987.29
2018-03-02T04:31:35.139Z,987.35
2018-03-02T04:32:35.736Z,987.29
2018-03-02T04:33:36.319Z,987.21
2018-03-02T04:34:36.904Z,987.20
2018-03-02T04:35:37.493Z,987.28
2018-03-02T04:36:38.088Z,987.14
2018-03-02T04:37:38.674Z,987.24
2018-03-02T04:38:39.273Z,987.18
2018-03-02T04:39:39.868Z,987.15
2018-03-02T04:40:40.451Z,987.07
2018-03-02T04:41:41.041Z,987.13
2018-03-02T04:42:41.630Z,987.07
2018-03-02T04:43:42.228Z,986.99
2018-03-02T04:44:42.819Z,987.06
2018-03-02T04:45:43.414Z,987.10
2018-03-02T04:46:43.999Z,987.11
2018-03-02T04:47:44.591Z,987.01
2018-03-02T04:48:45.177Z,987.03
2018-03-02T04:49:45.768Z,987.02
2018-03-02T04:50:46.346Z,986.97
2018-03-02T04:51:46.938Z,987.04
2018-03-02T04:52:47.517Z,986.94
2018-03-02T04:53:48.104Z,987.02
2018-03-02T04:54:48.690Z,986.94
2018-03-02T04:55:49.273Z,986.93
2018-03-02T04:56:49.859Z,986.83
2018-03-02T04:57:50.455Z,986.95
2018-03-02T04:58:51.044Z,986.98
2018-03-02T04:59:51.633Z,987.04
2018-03-02T05:00:52.220Z,986.91
2018-03-02T05:01:52.815Z,986.95
2018-03-02T05:02:53.398Z,986.87
2018-03-02T05:03:53.987Z,986.91
2018-03-02T05:04:54.581Z,986.87
2018-03-02T05:05:55.171Z,986.74
2018-03-02T05:06:55.768Z,986.84
2018-03-02T05:07:56.362Z,986.87
2018-03-02T05:08:56.944Z,986.81
2018-03-02T05:09:57.537Z,986.93
2018-03-02T05:10:58.122Z,986.91
2018-03-02T05:11:58.706Z,986.94
2018-03-02T05:12:59.295Z,986.82
2018-03-02T05:13:59.887Z,986.83
2018-03-02T05:15:00.470Z,986.89
2018-03-02T05:16:01.055Z,986.78
2018-03-02T05:17:01.646Z,986.84
2018-03-02T05:18:02.232Z,986.78
2018-03-02T05:19:02.829Z,986.82
2018-03-02T05:20:03.419Z,986.78
2018-03-02T05:21:04.021Z,986.73
2018-03-02T05:22:04.608Z,986.71
2018-03-02T05:23:05.201Z,986.80
2018-03-02T05:24:05.783Z,986.81
2018-03-02T05:25:06.367Z,986.69
2018-03-02T05:26:06.952Z,986.77
2018-03-02T05:27:07.542Z,986.76
2018-03-02T05:28:08.125Z,986.74
2018-03-02T05:29:08.708Z,986.79
2018-03-02T05:30:09.302Z,986.58
2018-03-02T05:31:09.943Z,986.62
2018-03-02T05:32:10.516Z,986.61
2018-03-02T05:33:11.100Z,986.56
2018-03-02T05:34:11.693Z,986.68
2018-03-02T05:35:12.287Z,986.67
2018-03-02T05:36:12.871Z,986.67
2018-03-02T05:37:13.466Z,986.67
2018-03-02T05:38:14.063Z,986.56
2018-03-02T05:39:14.652Z,986.60
2018-03-02T05:40:15.241Z,986.71
2018-03-02T05:41:15.827Z,986.58
2018-03-02T05:42:16.425Z,986.52
2018-03-02T05:43:17.009Z,986.64
2018-03-02T05:44:17.599Z,986.58
2018-03-02T05:45:18.186Z,986.56
2018-03-02T05:46:18.773Z,986.55
2018-03-02T05:47:19.371Z,986.44
2018-03-02T05:48:19.959Z,986.60
2018-03-02T05:49:20.549Z,986.50
2018-03-02T05:50:21.165Z,986.50
2018-03-02T05:51:21.729Z,986.60
2018-03-02T05:52:22.321Z,986.53
2018-03-02T05:53:22.924Z,986.53
2018-03-02T05:54:23.534Z,986.57
2018-03-02T05:55:24.112Z,986.59
2018-03-02T05:56:24.699Z,986.61
2018-03-02T05:57:25.286Z,986.68
2018-03-02T05:58:25.883Z,986.74
2018-03-02T05:59:26.479Z,986.62
2018-03-02T06:00:27.068Z,986.42
2018-03-02T06:01:27.658Z,986.51
2018-03-02T06:02:28.259Z,986.57
2018-03-02T06:03:28.851Z,986.49
2018-03-02T06:04:29.434Z,986.51
2018-03-02T06:05:30.034Z,986.60
2018-03-02T06:06:30.641Z,986.57
2018-03-02T06:07:31.263Z,986.50
2018-03-02T06:08:31.808Z,986.65
2018-03-02T06:09:32.403Z,986.64
2018-03-02T06:10:32.990Z,986.58
2018-03-02T06:11:33.580Z,986.60
2018-03-02T06:12:34.179Z,986.63
2018-03-02T06:13:34.774Z,986.66
2018-03-02T06:14:35.369Z,986.61
2018-03-02T06:15:35.961Z,986.58
2018-03-02T06:16:36.591Z,986.62
2018-03-02T06:17:37.146Z,986.64
2018-03-02T06:18:37.734Z,986.56
2018-03-02T06:19:38.320Z,986.63
2018-03-02T06:20:38.915Z,986.53
2018-03-02T06:21:39.503Z,986.56
2018-03-02T06:22:40.149Z,986.65
2018-03-02T06:23:40.707Z,986.69
2018-03-02T06:24:41.295Z,986.61
2018-03-02T06:25:41.889Z,986.62
2018-03-02T06:26:42.471Z,986.61
2018-03-02T06:27:43.056Z,986.61
2018-03-02T06:28:43.653Z,986.68
2018-03-02T06:29:44.250Z,986.59
2018-03-02T06:30:44.847Z,986.59
2018-03-02T06:31:45.438Z,986.61
2018-03-02T06:32:46.033Z,986.63
2018-03-02T06:33:46.620Z,986.56
2018-03-02T06:34:47.206Z,986.56
2018-03-02T06:35:47.791Z,986.61
2018-03-02T06:36:48.384Z,986.78
2018-03-02T06:37:48.976Z,986.72
2018-03-02T06:38:49.568Z,986.68
2018-03-02T06:39:50.164Z,986.78
2018-03-02T06:40:50.757Z,986.71
2018-03-02T06:41:51.355Z,986.69
2018-03-02T06:42:51.945Z,986.72
2018-03-02T06:43:52.550Z,986.64
2018-03-02T06:44:53.143Z,986.60
2018-03-02T06:45:53.736Z,986.57
2018-03-02T06:46:54.323Z,986.64
2018-03-02T06:47:54.920Z,986.58
2018-03-02T06:48:55.512Z,986.60
2018-03-02T06:49:56.110Z,986.58
2018-03-02T06:50:56.702Z,986.62
2018-03-02T06:51:57.302Z,986.49
2018-03-02T06:52:57.893Z,986.40
2018-03-02T06:53:58.487Z,986.53
2018-03-02T06:54:59.087Z,986.49
2018-03-02T06:55:59.680Z,986.55
2018-03-02T06:57:00.265Z,986.54
2018-03-02T06:58:00.865Z,986.47
2018-03-02T06:59:01.498Z,986.54
2018-03-02T07:00:02.060Z,986.18
2018-03-02T07:01:02.656Z,986.49
2018-03-02T07:02:03.253Z,986.54
2018-03-02T07:03:03.841Z,986.47
2018-03-02T07:04:04.437Z,986.47
2018-03-02T07:05:05.025Z,986.45
2018-03-02T07:06:05.619Z,986.43
2018-03-02T07:07:06.211Z,986.52
2018-03-02T07:08:06.805Z,986.48
2018-03-02T07:09:07.397Z,986.55
2018-03-02T07:10:07.980Z,986.53
2018-03-02T07:11:08.581Z,986.46
2018-03-02T07:12:09.169Z,986.51
2018-03-02T07:13:09.767Z,986.53
2018-03-02T07:14:10.361Z,986.50
2018-03-02T07:15:10.951Z,986.60
2018-03-02T07:16:11.545Z,986.51
2018-03-02T07:17:12.135Z,986.40
2018-03-02T07:18:12.735Z,986.41
2018-03-02T07:19:13.333Z,986.50
2018-03-02T07:20:13.925Z,986.37
2018-03-02T07:21:14.514Z,986.48
2018-03-02T07:22:15.101Z,986.43
2018-03-02T07:23:15.689Z,986.54
2018-03-02T07:24:16.278Z,986.30
2018-03-02T07:25:16.866Z,986.35
2018-03-02T07:26:17.458Z,986.30
2018-03-02T07:27:18.059Z,986.28
2018-03-02T07:28:18.657Z,986.29
2018-03-02T07:29:19.250Z,986.33
2018-03-02T07:30:19.852Z,986.19
2018-03-02T07:31:20.455Z,986.33
2018-03-02T07:32:21.049Z,986.32
2018-03-02T07:33:21.640Z,986.27
2018-03-02T07:34:22.233Z,986.21
2018-03-02T07:35:22.828Z,986.39
2018-03-02T07:36:23.426Z,986.40
2018-03-02T07:37:24.043Z,986.22
2018-03-02T07:38:24.646Z,986.31
2018-03-02T07:39:25.211Z,986.34
2018-03-02T07:40:25.815Z,986.37
2018-03-02T07:41:26.433Z,986.33
2018-03-02T07:42:27.285Z,986.38
2018-03-02T07:43:27.880Z,986.29
2018-03-02T07:44:28.477Z,986.09
2018-03-02T07:45:29.074Z,986.29
2018-03-02T07:46:29.675Z,986.28
2018-03-02T07:47:30.261Z,986.24
2018-03-02T07:48:30.859Z,986.41
2018-03-02T07:49:31.457Z,986.34
2018-03-02T07:50:32.050Z,986.32
2018-03-02T07:51:32.651Z,986.28
2018-03-02T07:52:33.266Z,986.36
2018-03-02T07:53:33.892Z,986.33
2018-03-02T07:54:34.464Z,986.34
2018-03-02T07:55:35.101Z,986.26
2018-03-02T07:56:35.696Z,986.39
2018-03-02T07:57:36.293Z,986.32
2018-03-02T07:58:36.885Z,986.19
2018-03-02T07:59:37.478Z,986.21
2018-03-02T08:00:38.092Z,986.27
2018-03-02T08:01:38.690Z,986.35
2018-03-02T08:02:39.285Z,986.23
2018-03-02T08:03:39.888Z,986.28
2018-03-02T08:04:40.491Z,986.28
2018-03-02T08:05:41.092Z,986.25
2018-03-02T08:06:41.685Z,986.23
2018-03-02T08:07:42.286Z,986.22
2018-03-02T08:08:42.881Z,986.17
2018-03-02T08:09:43.518Z,986.17
2018-03-02T08:10:44.081Z,986.17
2018-03-02T08:11:44.689Z,986.33
2018-03-02T08:12:45.280Z,986.09
2018-03-02T08:13:45.887Z,986.05
2018-03-02T08:14:46.489Z,986.13
2018-03-02T08:15:47.086Z,986.22
2018-03-02T08:16:47.681Z,986.26
2018-03-02T08:17:48.275Z,986.31
2018-03-02T08:18:48.879Z,986.17
2018-03-02T08:19:49.486Z,986.14
2018-03-02T08:20:50.085Z,986.15
2018-03-02T08:21:50.676Z,986.13
2018-03-02T08:22:51.334Z,986.10
2018-03-02T08:23:51.924Z,986.20
2018-03-02T08:24:52.524Z,986.19
2018-03-02T08:25:53.121Z,986.14
2018-03-02T08:26:53.728Z,986.20
2018-03-02T08:27:54.318Z,986.21
2018-03-02T08:28:54.919Z,986.34
2018-03-02T08:29:55.513Z,986.21
2018-03-02T08:30:56.112Z,986.21
2018-03-02T08:31:56.708Z,986.18
2018-03-02T08:32:57.312Z,986.27
2018-03-02T08:33:57.912Z,986.28
2018-03-02T08:34:58.512Z,986.21
2018-03-02T08:35:59.122Z,986.23
2018-03-02T08:36:59.727Z,986.18
2018-03-02T08:38:00.320Z,986.20
2018-03-02T08:39:00.982Z,986.23
2018-03-02T08:40:01.592Z,986.21
2018-03-02T08:41:02.200Z,986.25
2018-03-02T08:42:02.801Z,986.30
2018-03-02T08:43:03.399Z,986.31
2018-03-02T08:44:03.992Z,986.21
2018-03-02T08:45:04.586Z,986.15
2018-03-02T08:46:05.185Z,986.15
2018-03-02T08:47:05.794Z,986.19
2018-03-02T08:48:06.410Z,986.23
2018-03-02T08:49:07.017Z,986.23
2018-03-02T08:50:07.614Z,986.12
2018-03-02T08:51:08.214Z,986.19
2018-03-02T08:52:08.809Z,986.11
2018-03-02T08:53:09.410Z,986.05
2018-03-02T08:54:10.014Z,986.16
2018-03-02T08:55:10.621Z,986.16
2018-03-02T08:56:11.294Z,986.13
2018-03-02T08:57:11.941Z,986.22
2018-03-02T08:58:12.496Z,986.18
2018-03-02T08:59:13.096Z,986.19
2018-03-02T09:00:13.688Z,986.23
2018-03-02T09:01:14.299Z,986.21
2018-03-02T09:02:14.889Z,986.22
2018-03-02T09:03:15.516Z,986.25
2018-03-02T09:04:16.126Z,986.29
2018-03-02T09:05:16.732Z,986.27
2018-03-02T09:06:17.314Z,986.22
2018-03-02T09:07:17.905Z,986.33
2018-03-02T09:08:18.509Z,986.32
2018-03-02T09:09:19.098Z,986.27
2018-03-02T09:11:20.318Z,986.39
2018-03-02T09:12:20.913Z,986.50
2018-03-02T09:13:21.528Z,986.51
2018-03-02T09:14:22.118Z,986.25
2018-03-02T09:15:22.725Z,986.44
2018-03-02T09:16:23.319Z,986.29
2018-03-02T09:17:23.913Z,986.47
2018-03-02T09:18:24.539Z,986.45
2018-03-02T09:19:25.131Z,986.43
2018-03-02T09:20:25.731Z,986.49
2018-03-02T09:21:26.430Z,986.42
2018-03-02T09:22:27.016Z,986.52
2018-03-02T09:23:27.616Z,986.72
2018-03-02T09:24:28.211Z,986.56
2018-03-02T09:25:28.829Z,986.40
2018-03-02T09:26:29.446Z,986.42
2018-03-02T09:27:30.077Z,986.40
2018-03-02T09:28:30.657Z,986.38
2018-03-02T09:29:31.268Z,986.38
2018-03-02T09:30:31.863Z,986.42
2018-03-02T09:31:32.479Z,986.37
2018-03-02T09:32:33.052Z,986.32
2018-03-02T09:33:33.650Z,986.33
2018-03-02T09:34:34.264Z,986.39
2018-03-02T09:35:34.849Z,986.42
2018-03-02T09:36:35.441Z,986.46
2018-03-02T09:37:36.039Z,986.32
2018-03-02T09:38:36.650Z,986.35
2018-03-02T09:39:37.257Z,986.40
2018-03-02T09:40:37.891Z,986.52
2018-03-02T09:41:38.474Z,986.44
2018-03-02T09:42:39.120Z,986.50
2018-03-02T09:43:39.683Z,986.40
2018-03-02T09:44:40.269Z,986.41
2018-03-02T09:45:40.878Z,986.52
2018-03-02T09:46:41.486Z,986.44
2018-03-02T09:47:42.175Z,986.44
2018-03-02T09:48:42.784Z,986.38
2018-03-02T09:49:43.389Z,986.46
2018-03-02T09:50:44.000Z,986.40
2018-03-02T09:51:44.611Z,986.30
2018-03-02T09:52:45.197Z,986.36
2018-03-02T09:53:45.801Z,986.36
2018-03-02T09:54:46.436Z,986.56
2018-03-02T09:55:47.031Z,986.47
2018-03-02T09:56:47.622Z,986.42
2018-03-02T09:57:48.232Z,986.42
2018-03-02T09:58:48.828Z,986.52
2018-03-02T09:59:49.428Z,986.45
2018-03-02T10:00:50.036Z,986.54
2018-03-02T10:01:50.658Z,986.54
2018-03-02T10:02:51.240Z,986.49
2018-03-02T10:03:51.839Z,986.51
2018-03-02T10:04:52.455Z,986.52
2018-03-02T10:05:53.051Z,986.59
2018-03-02T10:06:53.651Z,986.55
2018-03-02T10:07:54.255Z,986.47
2018-03-02T10:08:54.862Z,986.43
2018-03-02T10:09:55.477Z,986.54
2018-03-02T10:10:56.312Z,986.51
2018-03-02T10:11:56.910Z,986.42
2018-03-02T10:12:57.532Z,986.11
2018-03-02T10:13:58.141Z,986.47
2018-03-02T10:14:58.756Z,986.48
2018-03-02T10:15:59.357Z,986.25
2018-03-02T10:16:59.951Z,986.57
2018-03-02T10:18:00.548Z,986.47
2018-03-02T10:19:01.155Z,986.54
2018-03-02T10:20:01.784Z,986.45
2018-03-02T10:21:02.382Z,986.49
2018-03-02T10:22:02.996Z,986.49
2018-03-02T10:23:03.612Z,986.46
2018-03-02T10:24:04.192Z,986.52
2018-03-02T10:25:04.790Z,986.47
2018-03-02T10:26:05.387Z,986.50
2018-03-02T10:27:05.986Z,986.46
2018-03-02T10:28:06.595Z,986.53
2018-03-02T10:29:07.263Z,986.59
2018-03-02T10:30:07.876Z,986.51
2018-03-02T10:31:08.462Z,986.55
2018-03-02T10:32:09.069Z,986.59
2018-03-02T10:33:09.666Z,986.38
2018-03-02T10:34:10.271Z,986.52
2018-03-02T10:35:10.893Z,986.48
2018-03-02T10:36:11.502Z,986.68
2018-03-02T10:37:12.095Z,986.56
2018-03-02T10:38:12.699Z,986.47
2018-03-02T10:39:13.327Z,986.63
2018-03-02T10:40:13.933Z,986.57
2018-03-02T10:41:14.513Z,986.52
2018-03-02T10:42:15.128Z,986.54
2018-03-02T10:43:15.736Z,986.56
2018-03-02T10:44:16.326Z,986.67
2018-03-02T10:45:16.933Z,986.72
2018-03-02T10:46:17.528Z,986.63
2018-03-02T10:47:18.345Z,986.59
2018-03-02T10:48:18.950Z,986.63
2018-03-02T10:49:19.561Z,986.68
2018-03-02T10:50:20.163Z,986.64
2018-03-02T10:51:20.756Z,986.75
2018-03-02T10:52:21.348Z,986.66
2018-03-02T10:53:21.963Z,986.70
2018-03-02T10:54:22.571Z,986.67
2018-03-02T10:55:23.183Z,986.66
2018-03-02T10:56:23.793Z,986.73
2018-03-02T10:57:24.399Z,986.74
2018-03-02T10:58:25.040Z,986.72
2018-03-02T10:59:25.657Z,986.63
2018-03-02T11:00:26.266Z,986.63
2018-03-02T11:01:26.848Z,986.63
2018-03-02T11:02:27.504Z,986.62
2018-03-02T11:03:28.092Z,986.62
2018-03-02T11:04:28.682Z,986.67
2018-03-02T11:05:29.288Z,986.69
2018-03-02T11:06:29.888Z,986.60
2018-03-02T11:07:30.504Z,986.67
2018-03-02T11:08:31.098Z,986.61
2018-03-02T11:09:31.735Z,986.61
2018-03-02T11:10:32.326Z,986.65
2018-03-02T11:11:32.930Z,986.61
2018-03-02T11:12:33.542Z,986.69
2018-03-02T11:13:34.133Z,986.73
2018-03-02T11:14:34.748Z,986.62
2018-03-02T11:15:35.349Z,986.52
2018-03-02T11:16:35.960Z,986.48
2018-03-02T11:17:36.579Z,986.63
2018-03-02T11:18:37.213Z,986.70
2018-03-02T11:19:37.840Z,986.62
2018-03-02T11:20:38.470Z,986.49
2018-03-02T11:21:39.052Z,986.62
2018-03-02T11:22:39.891Z,986.70
2018-03-02T11:23:40.522Z,986.64
2018-03-02T11:24:41.115Z,986.68
2018-03-02T11:25:41.713Z,986.61
2018-03-02T11:26:42.369Z,986.64
2018-03-02T11:27:42.929Z,986.62
2018-03-02T11:28:43.530Z,986.53
2018-03-02T11:29:44.155Z,986.66
2018-03-02T11:30:44.740Z,986.63
2018-03-02T11:31:45.354Z,986.66
2018-03-02T11:32:46.035Z,986.65
2018-03-02T11:33:46.705Z,986.72
2018-03-02T11:34:47.291Z,986.68
2018-03-02T11:35:47.897Z,986.60
2018-03-02T11:36:48.492Z,986.70
2018-03-02T11:37:49.081Z,986.62
2018-03-02T11:38:49.692Z,986.71
2018-03-02T11:39:50.288Z,986.70
2018-03-02T11:40:50.899Z,986.77
2018-03-02T11:41:51.507Z,986.74
2018-03-02T11:42:52.109Z,986.73
2018-03-02T11:43:52.708Z,986.78
2018-03-02T11:44:53.303Z,986.80
2018-03-02T11:45:53.902Z,986.76
2018-03-02T11:46:54.509Z,986.79
2018-03-02T11:47:55.135Z,986.86
2018-03-02T11:48:55.716Z,986.77
2018-03-02T11:49:56.319Z,986.80
2018-03-02T11:50:56.935Z,986.72
2018-03-02T11:51:57.520Z,986.78
2018-03-02T11:52:58.122Z,986.81
2018-03-02T11:53:58.719Z,986.89
2018-03-02T11:54:59.316Z,986.81
2018-03-02T11:55:59.956Z,986.72
2018-03-02T11:57:00.558Z,986.90
2018-03-02T11:58:01.154Z,986.86
2018-03-02T11:59:01.752Z,986.91
2018-03-02T12:00:02.353Z,986.79
2018-03-02T12:01:02.954Z,986.87
2018-03-02T12:02:03.555Z,986.85
2018-03-02T12:03:04.157Z,986.89
2018-03-02T12:04:04.772Z,986.98
2018-03-02T12:05:05.375Z,986.95
2018-03-02T12:06:06.012Z,986.85
2018-03-02T12:07:06.591Z,987.04
2018-03-02T12:08:07.226Z,986.86
2018-03-02T12:09:07.812Z,987.00
2018-03-02T12:10:08.405Z,986.94
2018-03-02T12:11:09.223Z,986.97
2018-03-02T12:12:09.846Z,986.88
2018-03-02T12:13:10.458Z,986.92
2018-03-02T12:14:11.049Z,986.86
2018-03-02T12:15:11.660Z,986.87
2018-03-02T12:16:12.252Z,986.89
2018-03-02T12:17:12.870Z,986.83
2018-03-02T12:18:13.449Z,986.84
2018-03-02T12:19:14.044Z,986.84
2018-03-02T12:20:14.695Z,986.83
2018-03-02T12:21:15.258Z,986.79
2018-03-02T12:22:15.867Z,986.81
2018-03-02T12:23:16.490Z,986.85
2018-03-02T12:24:17.104Z,986.91
2018-03-02T12:25:17.693Z,986.88
2018-03-02T12:26:18.288Z,986.87
2018-03-02T12:27:18.895Z,986.78
2018-03-02T12:28:19.503Z,986.87
2018-03-02T12:29:20.125Z,986.86
2018-03-02T12:30:20.728Z,986.81
2018-03-02T12:31:21.354Z,986.79
2018-03-02T12:32:21.949Z,986.90
2018-03-02T12:33:22.555Z,986.88
2018-03-02T12:34:23.141Z,986.82
2018-03-02T12:35:23.787Z,986.88
2018-03-02T12:36:24.374Z,986.80
2018-03-02T12:37:25.044Z,986.83